»·PEaware :: DAL454 KBZN-KPDX

DAL454 :: KBZN-KPDX

FLIGHT INFORMATION

Flight Status: Arrived
Operator:
Delta Air Lines
More flights by this operator :: More flights under this callsign
Pilot: Chuck O. (4337)
Aircraft: AIRBUS A320
(A320)
More flights by this aircraft type
Origin: KBZN Gallatin
United States
Destination: KPDX Portland Intl
United States
More flights between these airports :: More routes between these airports
Route: +TEERX3 HIA J16 PDT JKNOX HHOOD3
File this flight plan on PilotEdge
Remarks: SEL / CHAR
Altitude:
(Current/Filed)
380ft
Speed:
(Current/Filed)
442kts
Departed: 30-Nov-17 05:41 PM
Arrived: 30-Nov-17 07:14 PM
Distance/Time
Traveled:
479nm/1:33
Distance/Time
To Go:
Arrived

Flight Plot

Page will automatically refresh every two minutes.

Flight plan parsing failed; only flown route is shown


Map Options




Map Legend


Flown Route
Filed Route
Departure Airport
Arrival Airport
Navaid (VOR, NDB)
Fix

Horizontal Profiles

Position Reports

Time Latitude Longitude Heading Altitude Ground
Speed
30-Nov-17 17:17 45.779099 -111.160828 232 4485ft 0kts
30-Nov-17 17:18 45.779099 -111.160828 232 4485ft 0kts
30-Nov-17 17:19 45.779099 -111.160828 232 4485ft 0kts
30-Nov-17 17:20 45.779099 -111.160828 232 4485ft 0kts
30-Nov-17 17:21 45.779099 -111.160828 232 4485ft 0kts
30-Nov-17 17:22 45.779099 -111.160828 232 4485ft 0kts
30-Nov-17 17:23 45.779099 -111.160828 232 4485ft 0kts
30-Nov-17 17:24 45.779099 -111.160828 232 4485ft 0kts
30-Nov-17 17:25 45.779099 -111.160828 232 4485ft 0kts
30-Nov-17 17:26 45.779099 -111.160828 232 4485ft 0kts
30-Nov-17 17:27 45.779099 -111.160828 232 4485ft 0kts
30-Nov-17 17:28 45.779099 -111.160828 232 4485ft 0kts
30-Nov-17 17:29 45.779099 -111.160828 232 4485ft 0kts
30-Nov-17 17:30 45.779099 -111.160828 232 4485ft 0kts
30-Nov-17 17:31 45.779099 -111.160828 232 4485ft 0kts
30-Nov-17 17:32 45.779099 -111.160828 232 4485ft 0kts
30-Nov-17 17:33 45.779246 -111.160523 245 4485ft 2kts
30-Nov-17 17:34 45.779183 -111.159904 315 4485ft 0kts
30-Nov-17 17:35 45.779183 -111.159904 315 4485ft 0kts
30-Nov-17 17:36 45.779184 -111.159905 315 4485ft 0kts
30-Nov-17 17:37 45.779184 -111.159905 315 4485ft 0kts
30-Nov-17 17:38 45.779184 -111.159905 315 4485ft 0kts
30-Nov-17 17:39 45.779191 -111.159915 315 4485ft 0kts
30-Nov-17 17:40 45.781326 -111.161305 318 4485ft 16kts
30-Nov-17 17:41 45.786433 -111.168221 337 4485ft 19kts
30-Nov-17 17:42 45.787123 -111.167880 41 4485ft 0kts
30-Nov-17 17:43 45.787124 -111.167880 41 4485ft 0kts
30-Nov-17 17:44 45.787124 -111.167879 41 4485ft 0kts
30-Nov-17 17:45 45.787589 -111.165842 117 4485ft 11kts
30-Nov-17 17:46 45.778473 -111.153080 135 4488ft 116kts
30-Nov-17 17:47 45.747925 -111.117561 161 5548ft 190kts
30-Nov-17 17:48 45.710890 -111.184644 251 7475ft 270kts
30-Nov-17 17:49 45.706447 -111.290716 279 9410ft 276kts
30-Nov-17 17:50 45.720177 -111.404781 276 11046ft 321kts
30-Nov-17 17:51 45.735219 -111.538518 277 13081ft 348kts
30-Nov-17 17:52 45.748667 -111.653735 281 15050ft 355kts
30-Nov-17 17:53 45.783980 -111.813357 284 17481ft 365kts
30-Nov-17 17:54 45.808731 -111.926551 284 19008ft 371kts
30-Nov-17 17:55 45.839714 -112.067850 283 21358ft 361kts
30-Nov-17 17:56 45.862663 -112.207389 269 23042ft 362kts
30-Nov-17 17:57 45.862436 -112.352861 268 24507ft 369kts
30-Nov-17 17:58 45.863159 -112.501201 267 25907ft 374kts
30-Nov-17 17:59 45.863412 -112.650963 267 27199ft 378kts
30-Nov-17 18:00 45.863511 -112.802950 267 28381ft 382kts
30-Nov-17 18:01 45.863403 -112.956300 267 29488ft 386kts
30-Nov-17 18:02 45.863091 -113.110711 266 30529ft 389kts
30-Nov-17 18:03 45.862574 -113.264215 266 31983ft 378kts
30-Nov-17 18:04 45.861888 -113.413338 265 33227ft 371kts
30-Nov-17 18:05 45.860960 -113.559605 265 34294ft 365kts
30-Nov-17 18:06 45.859931 -113.705634 265 34986ft 365kts
30-Nov-17 18:07 45.858656 -113.851653 265 35567ft 367kts
30-Nov-17 18:08 45.857229 -113.998023 265 36053ft 368kts
30-Nov-17 18:09 45.855589 -114.145355 266 36477ft 369kts
30-Nov-17 18:10 45.853782 -114.292251 266 36860ft 369kts
30-Nov-17 18:11 45.851727 -114.440307 266 37160ft 371kts
30-Nov-17 18:12 45.849559 -114.587929 266 37482ft 370kts
30-Nov-17 18:13 45.847131 -114.735488 266 37677ft 371kts
30-Nov-17 18:14 45.844543 -114.883814 266 37888ft 371kts
30-Nov-17 18:15 45.841748 -115.032113 266 38034ft 373kts
30-Nov-17 18:16 45.838735 -115.181225 266 38162ft 374kts
30-Nov-17 18:17 45.835532 -115.330028 265 38260ft 375kts
30-Nov-17 18:18 45.832114 -115.479961 265 38270ft 377kts
30-Nov-17 18:19 45.828475 -115.631109 265 38274ft 379kts
30-Nov-17 18:20 45.824649 -115.780594 265 38227ft 370kts
30-Nov-17 18:21 45.820733 -115.927366 265 38147ft 369kts
30-Nov-17 18:22 45.816563 -116.075845 265 38137ft 374kts
30-Nov-17 18:23 45.812167 -116.225602 265 38156ft 378kts
30-Nov-17 18:24 45.807547 -116.376115 265 38218ft 379kts
30-Nov-17 18:25 45.802701 -116.527772 265 38221ft 381kts
30-Nov-17 18:26 45.797647 -116.679353 265 38226ft 382kts
30-Nov-17 18:27 45.792364 -116.831941 264 38230ft 383kts
30-Nov-17 18:28 45.786874 -116.984333 264 38233ft 383kts
30-Nov-17 18:29 45.781176 -117.136871 264 38239ft 384kts
30-Nov-17 18:30 45.775242 -117.290242 264 38238ft 385kts
30-Nov-17 18:31 45.769104 -117.443484 264 38239ft 386kts
30-Nov-17 18:32 45.762766 -117.597229 264 38237ft 387kts
30-Nov-17 18:33 45.756172 -117.751513 264 38237ft 387kts
30-Nov-17 18:34 45.749403 -117.905034 264 38241ft 386kts
30-Nov-17 18:35 45.742415 -118.058717 264 38215ft 386kts
30-Nov-17 18:36 45.735245 -118.212025 264 38212ft 386kts
30-Nov-17 18:37 45.727885 -118.364869 264 38210ft 385kts
30-Nov-17 18:38 45.720287 -118.518392 263 38209ft 385kts
30-Nov-17 18:39 45.712535 -118.670797 263 38215ft 384kts
30-Nov-17 18:40 45.704590 -118.822998 263 38216ft 383kts
30-Nov-17 18:41 45.694478 -118.975032 259 38215ft 382kts
30-Nov-17 18:42 45.676586 -119.124513 259 38224ft 382kts
30-Nov-17 18:43 45.658981 -119.273950 259 38230ft 382kts
30-Nov-17 18:44 45.640967 -119.423999 259 38234ft 382kts
30-Nov-17 18:45 45.622849 -119.573402 259 38229ft 382kts
30-Nov-17 18:46 45.604438 -119.723406 259 38226ft 383kts
30-Nov-17 18:47 45.585916 -119.872874 258 37844ft 380kts
30-Nov-17 18:48 45.567287 -120.021101 258 36854ft 379kts
30-Nov-17 18:49 45.548538 -120.169166 258 35275ft 376kts
30-Nov-17 18:50 45.529937 -120.314319 257 32990ft 369kts
30-Nov-17 18:51 45.517610 -120.457411 267 30929ft 360kts
30-Nov-17 18:52 45.520698 -120.596979 267 29098ft 343kts
30-Nov-17 18:53 45.522700 -120.736505 268 27123ft 355kts
30-Nov-17 18:54 45.524711 -120.874242 268 25159ft 339kts
30-Nov-17 18:55 45.526411 -121.006663 269 23106ft 327kts
30-Nov-17 18:56 45.527525 -121.133681 269 21381ft 314kts
30-Nov-17 18:57 45.528132 -121.258633 269 19745ft 321kts
30-Nov-17 18:58 45.528690 -121.384054 269 18180ft 311kts
30-Nov-17 18:59 45.529083 -121.504108 269 16958ft 297kts
30-Nov-17 19:00 45.529339 -121.620544 269 15599ft 288kts
30-Nov-17 19:01 45.529926 -121.729929 271 14641ft 269kts
30-Nov-17 19:02 45.533864 -121.835607 272 13642ft 264kts
30-Nov-17 19:03 45.537457 -121.937285 271 12639ft 249kts
30-Nov-17 19:04 45.554164 -122.033908 284 11612ft 261kts
30-Nov-17 19:05 45.574280 -122.130229 284 10565ft 246kts
30-Nov-17 19:06 45.594490 -122.227534 284 9501ft 259kts
30-Nov-17 19:07 45.614077 -122.322399 284 8484ft 247kts
30-Nov-17 19:08 45.634292 -122.420485 284 7187ft 257kts
30-Nov-17 19:09 45.658297 -122.505906 295 6441ft 214kts
30-Nov-17 19:10 45.683891 -122.576965 294 5322ft 192kts
30-Nov-17 19:11 45.707889 -122.640070 297 4416ft 158kts
30-Nov-17 19:12 45.727413 -122.691016 290 4416ft 142kts
30-Nov-17 19:13 45.723818 -122.744056 239 3508ft 139kts
30-Nov-17 19:14 45.691657 -122.772338 186 2898ft 141kts
30-Nov-17 19:15 45.656357 -122.752262 132 2233ft 142kts
30-Nov-17 19:16 45.636776 -122.703652 119 1737ft 138kts
30-Nov-17 19:17 45.618296 -122.656204 119 1008ft 135kts
30-Nov-17 19:18 45.600156 -122.609594 118 296ft 133kts
30-Nov-17 19:19 45.586780 -122.574982 118 32ft 29kts
30-Nov-17 19:20 45.583529 -122.569110 234 32ft 11kts
30-Nov-17 19:21 45.583470 -122.569417 266 32ft 0kts
30-Nov-17 19:22 45.583469 -122.569477 270 32ft 3kts
30-Nov-17 19:23 45.583701 -122.570337 298 32ft 0kts
30-Nov-17 19:24 45.584791 -122.573081 299 32ft 12kts
30-Nov-17 19:25 45.586733 -122.578096 300 32ft 15kts
30-Nov-17 19:26 45.588940 -122.583735 298 32ft 17kts
30-Nov-17 19:27 45.590470 -122.590371 297 32ft 18kts
30-Nov-17 19:28 45.591052 -122.593622 207 32ft 0kts
30-Nov-17 19:29 45.591052 -122.593622 207 32ft 0kts
30-Nov-17 19:30 45.591052 -122.593622 207 32ft 0kts
30-Nov-17 19:31 45.591052 -122.593622 207 32ft 0kts

Navigation Log

Ident Type
Flight plan parsing failed, navigation log unavailable